Arenas Valley, New Mexico
Current Conditions -  °F | °C
As of 12:15 PM on Thursday 18 Dec 2014 (Local Time) from KSVC Reporting Station
Light Rain Light Rain  
Wind Chill:   Ceiling: 2100
Heat Index:   Visibility: 4mi
Dew Point:   Wind: 0mph
Humidity: 81%   Direction: NA
Pressure: 30.13"   Gusts: NA
Location:  32.79°N, 108.18°W
Report Text: KSVC 181915Z AUTO 00000KT 4SM -RA FEW001 SCT016 OVC021 05/02 A3013 RMK AO2 P0001
Loading
Personal Weather Stations






























Interactive Weather Map New forecast layout! Learn more

10-Day Weather Forecast

Advertisements
Track Severe Weather on mobile